createdAt,value
2018-09-22T00:02:09.339Z,64
2018-09-22T00:07:38.814Z,64
2018-09-22T00:13:03.761Z,64
2018-09-22T00:18:33.378Z,64
2018-09-22T00:24:02.480Z,64
2018-09-22T00:29:31.400Z,64
2018-09-22T00:35:05.609Z,64
2018-09-22T00:40:35.085Z,64
2018-09-22T00:46:04.249Z,64
2018-09-22T00:51:33.258Z,65
2018-09-22T00:56:58.850Z,65
2018-09-22T01:02:32.584Z,65
2018-09-22T01:07:56.994Z,65
2018-09-22T01:13:27.212Z,65
2018-09-22T01:18:56.126Z,65
2018-09-22T01:24:25.554Z,65
2018-09-22T01:29:54.980Z,65
2018-09-22T01:35:23.940Z,65
2018-09-22T01:40:54.189Z,65
2018-09-22T01:46:24.152Z,65
2018-09-22T01:51:54.280Z,65
2018-09-22T01:57:29.873Z,65
2018-09-22T02:02:53.556Z,65
2018-09-22T02:08:22.993Z,65
2018-09-22T02:13:52.099Z,65
2018-09-22T02:19:27.067Z,65
2018-09-22T02:24:56.611Z,65
2018-09-22T02:30:21.682Z,65
2018-09-22T02:35:50.581Z,65
2018-09-22T02:41:20.796Z,65
2018-09-22T02:46:51.095Z,65
2018-09-22T02:52:20.217Z,65
2018-09-22T02:57:50.175Z,65
2018-09-22T03:03:20.349Z,65
2018-09-22T03:08:55.654Z,65
2018-09-22T03:14:19.617Z,65
2018-09-22T03:19:49.769Z,65
2018-09-22T03:25:18.926Z,66
2018-09-22T03:30:49.044Z,66
2018-09-22T03:36:18.198Z,66
2018-09-22T03:41:47.319Z,66
2018-09-22T03:47:17.424Z,66
2018-09-22T03:52:47.554Z,66
2018-09-22T03:58:22.799Z,66
2018-09-22T04:03:47.789Z,66
2018-09-22T04:09:22.948Z,66
2018-09-22T04:14:48.301Z,66
2018-09-22T04:53:20.599Z,66
2018-09-22T04:58:45.202Z,66
2018-09-22T05:04:15.956Z,66
2018-09-22T05:09:50.608Z,66
2018-09-22T05:15:16.051Z,66
2018-09-22T05:20:46.246Z,66
2018-09-22T05:26:15.176Z,66
2018-09-22T05:31:45.349Z,66
2018-09-22T05:37:15.460Z,65
2018-09-22T05:42:45.928Z,65
2018-09-22T05:48:14.968Z,65
2018-09-22T05:53:44.051Z,65
2018-09-22T05:59:13.275Z,65
2018-09-22T06:04:41.960Z,65
2018-09-22T06:10:11.194Z,65
2018-09-22T06:15:41.228Z,65
2018-09-22T06:21:10.102Z,65
2018-09-22T06:26:40.354Z,65
2018-09-22T06:32:09.125Z,65
2018-09-22T06:37:39.082Z,65
2018-09-22T06:43:08.321Z,65
2018-09-22T06:48:38.037Z,65
2018-09-22T06:54:08.182Z,65
2018-09-22T06:59:37.125Z,65
2018-09-22T07:05:06.133Z,65
2018-09-22T07:10:35.270Z,65
2018-09-22T07:16:04.975Z,65
2018-09-22T07:21:39.963Z,65
2018-09-22T07:27:10.247Z,65
2018-09-22T07:32:33.973Z,65
2018-09-22T07:38:04.291Z,65
2018-09-22T07:43:33.149Z,65
2018-09-22T07:49:03.257Z,65
2018-09-22T07:54:33.306Z,65
2018-09-22T08:00:02.308Z,65
2018-09-22T08:05:32.141Z,65
2018-09-22T08:11:02.645Z,65
2018-09-22T08:16:31.359Z,65
2018-09-22T08:22:00.492Z,65
2018-09-22T08:27:30.816Z,65
2018-09-22T08:32:59.721Z,65
2018-09-22T08:38:29.946Z,65
2018-09-22T08:44:05.212Z,64
2018-09-22T08:49:30.413Z,64
2018-09-22T08:55:00.895Z,64
2018-09-22T09:00:30.064Z,64
2018-09-22T09:06:00.353Z,64
2018-09-22T09:11:30.856Z,64
2018-09-22T09:17:05.367Z,63
2018-09-22T09:22:30.739Z,63
2018-09-22T09:28:01.297Z,63
2018-09-22T09:33:36.034Z,63
2018-09-22T09:39:06.656Z,63
2018-09-22T09:44:36.336Z,63
2018-09-22T09:50:06.292Z,63
2018-09-22T09:55:31.025Z,63
2018-09-22T10:01:01.522Z,63
2018-09-22T10:06:37.243Z,63
2018-09-22T10:12:07.979Z,62
2018-09-22T10:17:33.683Z,62
2018-09-22T10:23:09.478Z,62
2018-09-22T10:28:35.392Z,61
2018-09-22T10:34:05.337Z,61
2018-09-22T10:39:36.362Z,61
2018-09-22T10:45:10.881Z,61
2018-09-22T10:50:36.923Z,60
2018-09-22T10:56:11.995Z,60
2018-09-22T11:01:42.845Z,60
2018-09-22T11:07:08.677Z,59
2018-09-22T11:12:40.029Z,59
2018-09-22T11:18:11.126Z,59
2018-09-22T11:23:45.942Z,58
2018-09-22T11:29:12.423Z,58
2018-09-22T11:34:42.712Z,58
2018-09-22T11:40:13.365Z,58
2018-09-22T11:45:47.146Z,58
2018-09-22T11:51:15.608Z,57
2018-09-22T11:56:45.746Z,57
2018-09-22T12:02:17.399Z,56
2018-09-22T12:07:48.139Z,56
2018-09-22T12:13:19.605Z,56
2018-09-22T12:18:50.150Z,55
2018-09-22T12:24:21.117Z,55
2018-09-22T12:29:51.313Z,55
2018-09-22T12:35:22.989Z,55
2018-09-22T12:40:54.906Z,54
2018-09-22T12:46:24.928Z,54
2018-09-22T12:52:01.070Z,54
2018-09-22T12:57:27.559Z,54
2018-09-22T13:02:59.250Z,53
2018-09-22T13:08:29.668Z,53
2018-09-22T13:14:06.498Z,53
2018-09-22T13:19:32.930Z,53
2018-09-22T13:25:04.493Z,53
2018-09-22T13:30:35.124Z,52
2018-09-22T13:36:07.314Z,52
2018-09-22T13:41:42.570Z,52
2018-09-22T13:47:08.972Z,52
2018-09-22T14:42:25.915Z,46
2018-09-22T14:47:57.760Z,46
2018-09-22T14:53:27.769Z,46
2018-09-22T14:58:53.630Z,46
2018-09-22T15:04:24.875Z,46
2018-09-22T15:09:56.674Z,46
2018-09-22T15:15:31.291Z,46
2018-09-22T15:20:56.516Z,47
2018-09-22T15:26:31.274Z,47
2018-09-22T15:31:56.587Z,47
2018-09-22T15:37:26.745Z,47
2018-09-22T15:42:56.480Z,47
2018-09-22T15:48:27.917Z,47
2018-09-22T15:53:57.468Z,48
2018-09-22T16:05:03.696Z,48
2018-09-22T16:10:29.482Z,48
2018-09-22T16:16:00.594Z,48
2018-09-22T16:21:35.280Z,49
2018-09-22T16:27:00.407Z,49
2018-09-22T16:32:30.303Z,49
2018-09-22T16:38:06.245Z,49
2018-09-22T16:43:36.890Z,49
2018-09-22T16:49:08.980Z,49
2018-09-22T16:54:38.602Z,50
2018-09-22T17:00:10.074Z,50
2018-09-22T17:05:36.800Z,50
2018-09-22T17:11:10.139Z,50
2018-09-22T17:16:34.963Z,50
2018-09-22T17:22:05.686Z,50
2018-09-22T17:27:35.840Z,51
2018-09-22T17:33:11.331Z,51
2018-09-22T17:38:37.203Z,51
2018-09-22T17:44:12.844Z,51
2018-09-22T17:49:37.606Z,51
2018-09-22T17:55:08.725Z,51
2018-09-22T18:00:39.065Z,51
2018-09-22T18:06:09.072Z,52
2018-09-22T18:11:39.622Z,52
2018-09-22T18:17:10.530Z,52
2018-09-22T18:22:46.308Z,52
2018-09-22T18:28:11.776Z,52
2018-09-22T18:33:42.806Z,52
2018-09-22T18:39:13.125Z,52
2018-09-22T18:44:42.762Z,52
2018-09-22T18:50:13.449Z,53
2018-09-22T18:55:48.167Z,53
2018-09-22T19:01:13.831Z,53
2018-09-22T19:06:48.481Z,53
2018-09-22T19:12:13.130Z,53
2018-09-22T19:17:43.836Z,53
2018-09-22T19:23:13.375Z,53
2018-09-22T19:28:48.096Z,53
2018-09-22T19:34:13.022Z,53
2018-09-22T19:39:47.330Z,53
2018-09-22T19:45:13.081Z,54
2018-09-22T19:50:47.506Z,54
2018-09-22T19:56:17.999Z,54
2018-09-22T20:01:48.589Z,54
2018-09-22T20:07:13.145Z,54
2018-09-22T20:12:43.984Z,54
2018-09-22T20:18:14.526Z,54
2018-09-22T20:23:45.032Z,54
2018-09-22T20:29:14.555Z,54
2018-09-22T20:34:44.060Z,54
2018-09-22T20:40:18.295Z,54
2018-09-22T20:45:49.203Z,54
2018-09-22T20:51:13.693Z,55
2018-09-22T20:56:43.737Z,55
2018-09-22T21:02:13.456Z,55
2018-09-22T21:07:43.853Z,55
2018-09-22T21:13:19.332Z,55
2018-09-22T21:18:48.555Z,55
2018-09-22T21:24:14.305Z,55
2018-09-22T21:29:48.646Z,55
2018-09-22T21:35:12.861Z,55
2018-09-22T21:40:43.221Z,55
2018-09-22T21:46:12.607Z,55
2018-09-22T21:51:42.273Z,55
2018-09-22T21:57:11.695Z,55
2018-09-22T22:02:40.844Z,55
2018-09-22T22:08:16.221Z,55
2018-09-22T22:13:41.568Z,55
2018-09-22T22:19:11.959Z,56
2018-09-22T22:24:42.290Z,56
2018-09-22T22:30:23.414Z,56
2018-09-22T22:35:47.268Z,56
2018-09-22T22:41:12.437Z,56
2018-09-22T22:46:42.884Z,56
2018-09-22T22:52:12.982Z,56
2018-09-22T22:57:43.549Z,56
2018-09-22T23:03:13.626Z,56
2018-09-22T23:08:43.043Z,56
2018-09-22T23:14:13.305Z,56
2018-09-22T23:19:47.602Z,56
2018-09-22T23:25:12.176Z,56
2018-09-22T23:30:42.424Z,56
2018-09-22T23:36:11.743Z,56
2018-09-22T23:41:41.149Z,56
2018-09-22T23:47:11.406Z,56
2018-09-22T23:52:45.356Z,56
2018-09-22T23:58:10.631Z,56
